Time;durP1;ratioP1;P1;durP2;ratioP2;P2;SDS_P1;SDS_P2;PMS_P1;PMS_P2;Temp;Humidity;BMP_temperature;BMP_pressure;BME280_temperature;BME280_humidity;BME280_pressure;Samples;Min_cycle;Max_cycle;Signal;HPM_P1;HPM_P2
2022/12/26 00:01:18;;;;;;;179.15;29.83;;;;;;;7.23;100.00;100881.44;4961374;29;20051;-79
2022/12/26 00:03:47;;;;;;;147.10;29.30;;;;;;;7.23;100.00;100870.09;4992573;28;20062;-79
2022/12/26 00:06:17;;;;;;;183.27;31.33;;;;;;;7.23;100.00;100873.59;4981438;28;20058;-79
2022/12/26 00:08:46;;;;;;;212.68;32.67;;;;;;;7.24;100.00;100866.63;4990683;28;20050;-82
2022/12/26 00:11:16;;;;;;;163.57;30.30;;;;;;;7.24;100.00;100848.28;4990378;28;20051;-80
2022/12/26 00:13:44;;;;;;;174.98;31.05;;;;;;;7.25;100.00;100850.03;4949450;28;20051;-79
2022/12/26 00:16:14;;;;;;;190.43;30.98;;;;;;;7.25;100.00;100855.28;4974067;28;20068;-80
2022/12/26 00:18:43;;;;;;;205.27;31.90;;;;;;;7.23;100.00;100857.84;4977631;28;20051;-80
2022/12/26 00:21:12;;;;;;;198.95;30.58;;;;;;;7.24;100.00;100853.53;4985294;28;20051;-79
2022/12/26 00:23:41;;;;;;;172.10;29.38;;;;;;;7.22;100.00;100856.13;4958891;28;20055;-81
2022/12/26 00:26:15;;;;;;;118.28;27.27;;;;;;;7.23;100.00;100851.75;4982458;28;20042;-80
2022/12/26 00:28:43;;;;;;;130.70;26.75;;;;;;;7.23;100.00;100846.50;4978675;28;21922;-79
2022/12/26 00:31:14;;;;;;;138.52;27.88;;;;;;;7.22;100.00;100844.72;4964243;28;20054;-79
2022/12/26 00:33:42;;;;;;;108.18;25.02;;;;;;;7.21;100.00;100849.09;4977950;28;20071;-79
2022/12/26 00:36:18;;;;;;;136.93;25.85;;;;;;;7.21;100.00;100845.59;4956444;28;20049;-80
2022/12/26 00:38:46;;;;;;;152.10;27.42;;;;;;;7.21;100.00;100848.22;4978096;28;20043;-79
2022/12/26 00:41:15;;;;;;;126.65;26.00;;;;;;;7.21;100.00;100846.47;4983899;28;20042;-80
2022/12/26 00:43:42;;;;;;;123.47;26.05;;;;;;;7.21;100.00;100843.84;4983341;28;20058;-79
2022/12/26 00:46:10;;;;;;;105.05;24.50;;;;;;;7.21;100.00;100849.09;4977390;28;20063;-79
2022/12/26 00:48:39;;;;;;;144.60;29.10;;;;;;;7.20;100.00;100847.34;4994140;28;20059;-78
2022/12/26 00:51:06;;;;;;;152.32;27.77;;;;;;;7.21;100.00;100843.84;4986346;28;20059;-78
2022/12/26 00:53:34;;;;;;;121.70;26.45;;;;;;;7.21;100.00;100842.97;4967640;28;20039;-80
2022/12/26 00:56:02;;;;;;;127.25;26.10;;;;;;;7.22;100.00;100849.97;4963733;28;20047;-79
2022/12/26 00:58:29;;;;;;;141.07;26.83;;;;;;;7.22;100.00;100850.88;4968216;28;20058;-78
2022/12/26 01:01:07;;;;;;;78.47;22.02;;;;;;;7.21;100.00;100858.69;4978099;28;20043;-79
2022/12/26 01:03:34;;;;;;;100.88;23.08;;;;;;;7.23;100.00;100854.38;4968835;28;20074;-79
2022/12/26 01:06:03;;;;;;;98.60;24.00;;;;;;;7.23;100.00;100855.25;4997007;28;20065;-79
2022/12/26 01:08:30;;;;;;;115.45;23.83;;;;;;;7.23;100.00;100849.13;4997365;28;20055;-79
2022/12/26 01:11:02;;;;;;;89.60;22.48;;;;;;;7.24;100.00;100843.03;4977644;28;20051;-79
2022/12/26 01:13:32;;;;;;;96.63;22.38;;;;;;;7.24;100.00;100856.16;4984038;28;20051;-79
2022/12/26 01:15:59;;;;;;;101.90;24.15;;;;;;;7.23;100.00;100855.25;4942787;28;20051;-80
2022/12/26 01:18:27;;;;;;;64.80;18.83;;;;;;;7.23;100.00;100859.59;4981595;28;20056;-79
2022/12/26 01:21:04;;;;;;;95.15;22.23;;;;;;;7.24;100.00;100853.53;4975728;28;20054;-79
2022/12/26 01:23:31;;;;;;;90.95;22.42;;;;;;;7.24;100.00;100864.00;4999887;28;20051;-79
2022/12/26 01:25:59;;;;;;;89.00;21.90;;;;;;;7.25;100.00;100867.50;5000225;28;20055;-79
2022/12/26 01:28:51;;;;;;;95.97;22.50;;;;;;;7.25;100.00;100868.38;4967661;28;20066;-79
2022/12/26 01:31:19;;;;;;;74.97;20.67;;;;;;;7.25;100.00;100875.38;4968525;28;20051;-79
2022/12/26 01:33:47;;;;;;;82.90;20.70;;;;;;;7.26;100.00;100877.13;4982928;28;20740;-79
2022/12/26 01:36:16;;;;;;;72.35;19.58;;;;;;;7.25;100.00;100875.38;4992729;28;20062;-79
2022/12/26 01:38:44;;;;;;;89.28;21.98;;;;;;;7.25;100.00;100871.00;4994568;28;20055;-78
2022/12/26 01:41:21;;;;;;;88.20;21.55;;;;;;;7.25;100.00;100867.50;4987579;28;20051;-79
2022/12/26 01:43:50;;;;;;;92.90;22.25;;;;;;;7.26;100.00;100866.63;4977991;28;20039;-79
2022/12/26 01:46:22;;;;;;;88.45;22.23;;;;;;;7.26;100.00;100862.28;4983112;28;20074;-79
2022/12/26 01:48:51;;;;;;;101.15;22.65;;;;;;;7.26;100.00;100869.25;4976551;28;20050;-79
2022/12/26 01:51:22;;;;;;;115.57;24.13;;;;;;;7.26;100.00;100872.78;4979947;28;20051;-79
2022/12/26 01:53:54;;;;;;;83.97;22.25;;;;;;;7.25;100.00;100865.75;4970442;28;20046;-79
2022/12/26 01:56:44;;;;;;;91.82;23.38;;;;;;;7.26;100.00;100866.63;4965162;28;20058;-79
2022/12/26 01:59:24;;;;;;;105.50;24.27;;;;;;;7.26;100.00;100867.53;4957176;28;20055;-79
2022/12/26 02:01:52;;;;;;;103.20;24.15;;;;;;;7.27;100.00;100873.66;4980832;28;20079;-79
2022/12/26 02:07:17;;;;;;;99.65;26.30;;;;;;;7.26;100.00;100872.78;4952440;29;20055;-79
2022/12/26 02:09:44;;;;;;;119.50;24.88;;;;;;;7.27;100.00;100876.28;4960595;28;20061;-78
2022/12/26 02:12:21;;;;;;;99.45;24.15;;;;;;;7.26;100.00;100874.50;4980392;28;20043;-79
2022/12/26 02:15:10;;;;;;;105.93;25.08;;;;;;;7.27;100.00;100882.38;4996788;28;20074;-79
2022/12/26 02:17:38;;;;;;;96.35;24.50;;;;;;;7.28;100.00;100880.63;4927434;28;20864;-80
2022/12/26 02:20:20;;;;;;;136.88;25.85;;;;;;;7.28;100.00;100883.25;4965927;28;20062;-78
2022/12/26 02:23:10;;;;;;;108.63;23.85;;;;;;;7.26;100.00;100883.25;4964575;28;20755;-79
2022/12/26 02:25:56;;;;;;;113.53;26.05;;;;;;;7.27;100.00;100873.66;4962307;28;20483;-79
2022/12/26 02:28:42;;;;;;;109.53;24.67;;;;;;;7.28;100.00;100881.53;4941203;29;20437;-79
2022/12/26 02:31:51;;;;;;;92.45;23.45;;;;;;;7.28;100.00;100880.63;4963517;28;20055;-79
2022/12/26 02:34:29;;;;;;;90.35;21.50;;;;;;;7.29;100.00;100877.19;4930902;28;20059;-79
2022/12/26 02:37:41;;;;;;;65.93;19.55;;;;;;;7.28;100.00;100862.28;4963215;29;20066;-78
2022/12/26 02:40:11;;;;;;;68.80;19.25;;;;;;;7.28;100.00;100875.41;4923017;29;20048;-78
2022/12/26 02:42:48;;;;;;;;;;;;;;;7.28;100.00;100875.41;4910328;29;20464;-79
2022/12/26 02:48:33;;;;;;;58.28;18.15;;;;;;;7.28;100.00;100871.06;4943954;29;20178;-78
2022/12/26 03:15:02;;;;;;;57.65;16.70;;;;;;;7.26;100.00;100838.69;4974147;28;20039;-78
2022/12/26 03:17:31;;;;;;;51.95;15.93;;;;;;;7.27;100.00;100835.22;4999038;28;20051;-78
2022/12/26 03:20:04;;;;;;;53.70;17.23;;;;;;;7.27;100.00;100827.34;4979804;28;20058;-77
2022/12/26 03:22:41;;;;;;;49.13;16.75;;;;;;;7.27;100.00;100829.97;4965131;28;20046;-77
2022/12/26 03:28:08;;;;;;;53.40;17.92;;;;;;;7.27;100.00;100819.47;4979633;28;20043;-78
2022/12/26 03:30:49;;;;;;;61.13;19.98;;;;;;;7.28;100.00;100815.13;4987228;28;20123;-78
2022/12/26 03:36:49;;;;;;;48.38;17.58;;;;;;;7.29;100.00;100820.38;4968512;28;26069;-79
2022/12/26 04:45:21;;;;;;;57.20;25.77;;;;;;;7.48;100.00;100823.31;4994418;28;20055;-78
2022/12/26 04:50:50;;;;;;;56.03;25.00;;;;;;;7.49;100.00;100818.09;4982839;28;20058;-78
2022/12/26 04:53:18;;;;;;;;;;;;;;;7.49;100.00;100812.84;4953323;28;20065;-78
2022/12/26 04:55:45;;;;;;;59.80;26.20;;;;;;;7.50;100.00;100811.97;4976700;28;20279;-78
2022/12/26 04:58:16;;;;;;;62.45;26.05;;;;;;;7.51;100.00;100810.25;4973407;28;20049;-79
2022/12/26 05:00:43;;;;;;;67.40;26.42;;;;;;;7.51;100.00;100815.50;4979408;28;20050;-79
2022/12/26 05:11:34;;;;;;;54.65;25.58;;;;;;;7.53;100.00;100800.66;4988708;28;20056;-79
2022/12/26 05:14:02;;;;;;;62.28;26.33;;;;;;;7.53;100.00;100805.91;4958558;28;20554;-78
2022/12/26 05:30:27;;;;;;;59.33;24.53;;;;;;;7.57;100.00;100808.59;4977447;28;20468;-78
2022/12/26 05:35:41;;;;;;;43.67;22.13;;;;;;;7.58;100.00;100805.13;4970245;28;20096;-78
2022/12/26 05:38:09;;;;;;;45.95;22.85;;;;;;;7.58;100.00;100806.84;4984447;28;20043;-78
2022/12/26 05:40:37;;;;;;;40.80;22.67;;;;;;;7.60;100.00;100813.88;4978457;28;20050;-78
2022/12/26 05:43:04;;;;;;;44.72;22.52;;;;;;;7.61;100.00;100812.13;4981690;28;20047;-79
2022/12/26 05:45:32;;;;;;;45.92;21.95;;;;;;;7.60;100.00;100806.03;4995521;28;20058;-78
2022/12/26 05:48:01;;;;;;;46.10;22.98;;;;;;;7.62;100.00;100808.66;4987749;28;20042;-79
2022/12/26 05:50:28;;;;;;;45.20;22.52;;;;;;;7.61;100.00;100818.25;4975760;28;20054;-78
2022/12/26 05:52:57;;;;;;;44.08;22.05;;;;;;;7.60;100.00;100815.63;4998243;28;20055;-78
2022/12/26 05:55:24;;;;;;;41.25;19.95;;;;;;;7.59;100.00;100819.97;4959117;28;20058;-78
2022/12/26 05:57:52;;;;;;;38.22;20.27;;;;;;;7.59;100.00;100816.47;4966819;28;20047;-78
2022/12/26 06:00:20;;;;;;;44.15;22.45;;;;;;;7.59;100.00;100821.72;4973841;28;20042;-79
2022/12/26 06:02:47;;;;;;;37.20;21.45;;;;;;;7.59;100.00;100821.72;4981843;28;20599;-79
2022/12/26 06:05:15;;;;;;;39.92;22.65;;;;;;;7.59;100.00;100814.72;4977148;28;20141;-79
2022/12/26 06:07:43;;;;;;;37.58;21.75;;;;;;;7.57;100.00;100823.44;4982424;28;20043;-78
2022/12/26 06:10:11;;;;;;;42.00;23.05;;;;;;;7.57;100.00;100820.81;4965196;28;20161;-79
2022/12/26 06:12:38;;;;;;;42.28;21.98;;;;;;;7.57;100.00;100810.34;4953908;28;20070;-78
2022/12/26 06:15:06;;;;;;;37.92;21.35;;;;;;;7.55;100.00;100810.31;4981351;28;20074;-78
2022/12/26 06:17:34;;;;;;;37.70;21.38;;;;;;;7.56;100.00;100813.81;4967013;28;20046;-78
2022/12/26 06:20:01;;;;;;;43.72;23.67;;;;;;;7.55;100.00;100812.06;4962382;28;20051;-78
2022/12/26 06:22:28;;;;;;;39.95;22.65;;;;;;;7.53;100.00;100814.66;4987762;28;20413;-78
2022/12/26 06:24:56;;;;;;;38.70;23.15;;;;;;;7.54;100.00;100821.66;4980821;28;20057;-78
2022/12/26 06:27:23;;;;;;;39.72;21.98;;;;;;;7.53;100.00;100824.25;4968390;28;20065;-78
2022/12/26 06:29:51;;;;;;;40.83;22.65;;;;;;;7.52;100.00;100825.09;4994328;28;20055;-78
2022/12/26 06:32:18;;;;;;;40.20;23.10;;;;;;;7.51;100.00;100818.13;4979920;28;20512;-78
2022/12/26 06:34:46;;;;;;;38.50;22.25;;;;;;;7.48;100.00;100818.94;4983397;28;20047;-78
2022/12/26 06:37:14;;;;;;;39.78;24.17;;;;;;;7.49;100.00;100820.72;4980261;28;20054;-79
2022/12/26 06:39:41;;;;;;;38.47;23.50;;;;;;;7.50;100.00;100821.59;4960232;28;20055;-78
2022/12/26 06:42:09;;;;;;;36.80;22.00;;;;;;;7.49;100.00;100811.97;4956444;28;20131;-78
2022/12/26 06:44:37;;;;;;;41.28;24.20;;;;;;;7.48;100.00;100810.19;4994334;28;20050;-78
2022/12/26 06:47:04;;;;;;;34.13;21.67;;;;;;;7.48;100.00;100808.44;4957019;28;20042;-78
2022/12/26 06:49:32;;;;;;;32.92;22.08;;;;;;;7.48;100.00;100794.47;4998509;28;20427;-77
2022/12/26 06:51:59;;;;;;;31.83;21.85;;;;;;;7.49;100.00;100796.25;4970440;28;20043;-78
2022/12/26 06:54:27;;;;;;;36.58;23.23;;;;;;;7.48;100.00;100792.72;4989342;28;20051;-80
2022/12/26 06:56:54;;;;;;;37.78;21.88;;;;;;;7.49;100.00;100794.50;4955198;28;20050;-78
2022/12/26 06:59:22;;;;;;;34.20;20.92;;;;;;;7.50;100.00;100787.50;4965612;28;20420;-77
2022/12/26 07:01:49;;;;;;;30.38;20.23;;;;;;;7.49;100.00;100797.13;4973108;28;20058;-80
2022/12/26 07:04:17;;;;;;;29.33;19.88;;;;;;;7.50;100.00;100793.63;4980120;28;20046;-80
2022/12/26 07:06:44;;;;;;;29.65;19.75;;;;;;;7.52;100.00;100785.78;4970820;28;20061;-80
2022/12/26 07:09:15;;;;;;;35.45;21.73;;;;;;;7.53;100.00;100796.28;4987578;28;20168;-78
2022/12/26 07:11:48;;;;;;;27.80;19.88;;;;;;;7.53;100.00;100793.66;4982028;28;20053;-78
2022/12/26 07:14:16;;;;;;;28.58;18.92;;;;;;;7.53;100.00;100782.31;4970843;28;20485;-80
2022/12/26 07:16:44;;;;;;;29.25;19.00;;;;;;;7.54;100.00;100776.19;4995968;28;20069;-79
2022/12/26 07:19:13;;;;;;;27.65;18.95;;;;;;;7.53;100.00;100783.19;4957485;28;20054;-78
2022/12/26 07:21:41;;;;;;;25.27;17.45;;;;;;;7.55;100.00;100775.34;4981829;28;20447;-79
2022/12/26 07:24:17;;;;;;;24.55;16.95;;;;;;;7.55;100.00;100770.97;4988923;28;20051;-80
2022/12/26 07:26:46;;;;;;;26.10;16.73;;;;;;;7.54;100.00;100774.47;4993367;28;20149;-79
2022/12/26 07:29:14;;;;;;;25.65;18.05;;;;;;;7.55;100.00;100775.34;4958076;28;20051;-79
2022/12/26 07:31:43;;;;;;;23.77;16.83;;;;;;;7.56;100.00;100763.97;4979249;28;20820;-79
2022/12/26 07:34:10;;;;;;;23.73;16.58;;;;;;;7.57;100.00;100773.63;4982159;28;20066;-79
2022/12/26 07:36:38;;;;;;;25.45;15.95;;;;;;;7.58;100.00;100770.13;4982044;28;20051;-80
2022/12/26 07:39:06;;;;;;;19.23;14.85;;;;;;;7.58;100.00;100759.63;4957808;28;20417;-79
2022/12/26 07:44:20;;;;;;;26.33;16.25;;;;;;;7.61;100.00;100764.94;4951007;28;20138;-80
2022/12/26 07:46:47;;;;;;;22.88;15.63;;;;;;;7.61;100.00;100770.19;4960592;28;20038;-79
2022/12/26 07:49:15;;;;;;;28.73;17.50;;;;;;;7.60;100.00;100757.94;4991668;28;20043;-80
2022/12/26 07:51:42;;;;;;;22.45;15.77;;;;;;;7.63;100.00;100760.59;5011611;28;20049;-79
2022/12/26 07:54:10;;;;;;;17.90;14.35;;;;;;;7.64;100.00;100758.84;5010334;28;20411;-79
2022/12/26 07:56:39;;;;;;;19.13;14.25;;;;;;;7.65;100.00;100751.00;4995402;28;20046;-80
2022/12/26 07:59:10;;;;;;;20.20;14.40;;;;;;;7.65;100.00;100742.25;5001831;28;20058;-79
2022/12/26 08:01:38;;;;;;;21.92;14.45;;;;;;;7.65;100.00;100740.50;4978250;28;20046;-79
2022/12/26 08:04:05;;;;;;;21.48;13.65;;;;;;;7.65;100.00;100740.50;4987124;28;20050;-79
2022/12/26 08:06:33;;;;;;;20.98;13.63;;;;;;;7.63;100.00;100741.34;4981351;28;20504;-79
2022/12/26 08:09:00;;;;;;;19.13;12.43;;;;;;;7.63;100.00;100744.84;5010403;28;20058;-79
2022/12/26 08:11:32;;;;;;;16.83;11.93;;;;;;;7.64;100.00;100740.47;4983215;28;20061;-79
2022/12/26 08:14:00;;;;;;;16.80;12.07;;;;;;;7.66;100.00;100741.41;4987481;28;20043;-78
2022/12/26 08:16:27;;;;;;;16.75;11.85;;;;;;;7.66;100.00;100731.78;4969505;28;20168;-78
2022/12/26 08:18:55;;;;;;;17.67;12.05;;;;;;;7.67;100.00;100736.16;4983719;28;20046;-79
2022/12/26 08:21:22;;;;;;;18.80;12.20;;;;;;;7.68;100.00;100740.56;5003833;28;20050;-80
2022/12/26 08:23:50;;;;;;;20.05;12.00;;;;;;;7.68;100.00;100732.69;5013031;28;20042;-79
2022/12/26 08:26:22;;;;;;;14.85;11.68;;;;;;;7.68;100.00;100729.19;4992077;28;20046;-80
2022/12/26 08:28:51;;;;;;;17.05;10.63;;;;;;;7.69;100.00;100726.56;5013954;28;20037;-77
2022/12/26 08:31:19;;;;;;;17.38;10.70;;;;;;;7.70;100.00;100720.47;4977951;28;20046;-81
2022/12/26 08:33:48;;;;;;;12.32;9.13;;;;;;;7.72;100.00;100725.75;4988950;28;20042;-80
2022/12/26 08:36:17;;;;;;;17.77;9.43;;;;;;;7.74;100.00;100729.25;4962737;28;20061;-80
2022/12/26 08:38:44;;;;;;;10.93;9.57;;;;;;;7.76;100.00;100743.28;4992880;28;20051;-81
2022/12/26 08:41:12;;;;;;;14.93;9.38;;;;;;;7.78;100.00;100742.44;4972955;28;20049;-84
2022/12/26 08:43:39;;;;;;;12.13;8.60;;;;;;;7.78;100.00;100737.19;4966142;28;20743;-81
2022/12/26 08:46:26;;;;;;;14.63;10.02;;;;;;;7.81;100.00;100731.97;4976486;28;20054;-81
2022/12/26 08:49:01;;;;;;;13.20;8.70;;;;;;;7.83;100.00;100744.25;4990459;28;20050;-81
2022/12/26 08:51:29;;;;;;;13.52;9.15;;;;;;;7.85;100.00;100748.66;4936304;28;20139;-81
2022/12/26 08:53:56;;;;;;;18.65;9.32;;;;;;;7.86;100.00;100733.78;4975063;28;20042;-81
2022/12/26 08:56:25;;;;;;;15.15;9.93;;;;;;;7.88;100.00;100739.91;4979199;28;20051;-81
2022/12/26 08:58:53;;;;;;;11.00;8.75;;;;;;;7.89;100.00;100739.06;4968767;28;20046;-81
2022/12/26 09:01:26;;;;;;;14.73;8.63;;;;;;;7.88;100.00;100746.06;4966865;28;20427;-80
2022/12/26 09:03:59;;;;;;;14.02;8.98;;;;;;;7.90;100.00;100743.44;4945602;28;20057;-81
2022/12/26 09:06:28;;;;;;;17.92;8.93;;;;;;;7.92;100.00;100741.72;4972774;28;20051;-81
2022/12/26 09:08:58;;;;;;;10.98;8.27;;;;;;;7.90;100.00;100733.84;5003867;28;20058;-81
2022/12/26 09:11:25;;;;;;;15.98;9.50;;;;;;;7.93;100.00;100746.13;4970439;28;20407;-81
2022/12/26 09:13:54;;;;;;;21.77;9.38;;;;;;;7.93;100.00;100747.00;4975940;28;20042;-81
2022/12/26 09:16:25;;;;;;;17.45;8.38;;;;;;;7.93;100.00;100748.75;4984043;28;20058;-81
2022/12/26 09:18:55;;;;;;;16.20;9.85;;;;;;;7.91;100.00;100748.72;4956259;28;20514;-81
2022/12/26 09:21:24;;;;;;;20.52;10.55;;;;;;;7.91;100.00;100747.84;4977834;28;20423;-81
2022/12/26 09:24:03;;;;;;;15.30;9.30;;;;;;;7.90;100.00;100753.94;4987624;28;20871;-80
2022/12/26 09:26:32;;;;;;;12.90;9.17;;;;;;;7.89;100.00;100750.44;4991249;28;20046;-81
2022/12/26 09:28:59;;;;;;;17.38;10.77;;;;;;;7.89;100.00;100745.19;4968517;28;20043;-81
2022/12/26 09:31:28;;;;;;;15.45;10.98;;;;;;;7.87;100.00;100746.91;4954568;28;20054;-81
2022/12/26 09:33:56;;;;;;;9.52;7.80;;;;;;;7.85;100.00;100748.66;4948541;28;20045;-81
2022/12/26 09:36:29;;;;;;;14.77;10.18;;;;;;;7.86;100.00;100757.38;4983715;28;20070;-80
2022/12/26 09:38:57;;;;;;;15.77;8.90;;;;;;;7.85;100.00;100758.28;4975638;28;20061;-81
2022/12/26 09:41:40;;;;;;;15.63;9.93;;;;;;;7.84;100.00;100769.59;4993183;28;20510;-81
2022/12/26 09:44:16;;;;;;;16.17;10.18;;;;;;;7.83;100.00;100760.88;4981795;28;20046;-80
2022/12/26 09:47:08;;;;;;;14.13;9.25;;;;;;;7.80;100.00;100771.31;4993571;28;20057;-80
2022/12/26 09:49:56;;;;;;;16.33;10.13;;;;;;;7.80;100.00;100768.69;4959835;28;20496;-81
2022/12/26 09:52:36;;;;;;;12.85;9.35;;;;;;;7.79;100.00;100774.81;4997717;28;20061;-81
2022/12/26 09:55:41;;;;;;;12.73;8.75;;;;;;;7.78;100.00;100767.78;4993136;28;20480;-82
2022/12/26 09:58:46;;;;;;;15.85;9.50;;;;;;;7.78;100.00;100783.53;4983562;28;20043;-81
2022/12/26 10:01:19;;;;;;;12.75;8.70;;;;;;;7.79;100.00;100788.78;4995443;28;20047;-80
2022/12/26 10:03:51;;;;;;;11.05;7.78;;;;;;;7.80;100.00;100798.41;4970683;28;20161;-81
2022/12/26 10:06:21;;;;;;;13.80;6.70;;;;;;;7.80;100.00;100800.16;4961205;28;20487;-81
2022/12/26 10:08:54;;;;;;;9.63;3.67;;;;;;;7.78;100.00;100812.38;4971491;28;20050;-81
2022/12/26 10:11:34;;;;;;;9.57;3.38;;;;;;;7.75;100.00;100809.69;4992075;28;20305;-81
2022/12/26 10:14:27;;;;;;;9.68;2.40;;;;;;;7.70;100.00;100828.00;4993121;28;20507;-80
2022/12/26 10:17:18;;;;;;;7.63;2.75;;;;;;;7.71;100.00;100835.03;5003747;28;20054;-81
2022/12/26 10:20:08;;;;;;;7.57;2.63;;;;;;;7.71;100.00;100842.00;4972326;28;20057;-81
2022/12/26 10:22:49;;;;;;;9.70;2.90;;;;;;;7.52;100.00;100848.72;4941303;28;20046;-81
2022/12/26 10:25:44;;;;;;;7.88;2.88;;;;;;;7.26;100.00;100856.16;4963201;28;20047;-81
2022/12/26 10:28:22;;;;;;;10.30;2.20;;;;;;;7.07;100.00;100860.19;4980360;28;20042;-81
2022/12/26 10:30:53;;;;;;;6.90;2.17;;;;;;;6.98;100.00;100856.56;4990445;28;20053;-81
2022/12/26 10:33:35;;;;;;;13.68;3.00;;;;;;;6.89;100.00;100866.88;4974686;28;20054;-80
2022/12/26 10:36:03;;;;;;;9.35;2.58;;;;;;;6.82;100.00;100878.06;4977919;28;20062;-80
2022/12/26 10:38:38;;;;;;;14.73;3.28;;;;;;;6.79;100.00;100881.53;4953911;28;20061;-80
2022/12/26 10:41:13;;;;;;;16.30;2.63;;;;;;;6.82;100.00;100888.56;4994675;28;20096;-80
2022/12/26 10:43:43;;;;;;;13.63;3.08;;;;;;;6.82;100.00;100888.56;4990918;28;20042;-80
2022/12/26 10:46:29;;;;;;;17.90;2.72;;;;;;;6.81;100.00;100894.66;4971796;28;20043;-80
2022/12/26 10:48:57;;;;;;;13.65;2.30;;;;;;;6.78;100.00;100899.84;4977141;28;20576;-80
2022/12/26 10:51:25;;;;;;;12.80;2.47;;;;;;;6.78;100.00;100913.81;4992356;28;20403;-80
2022/12/26 10:53:53;;;;;;;10.77;2.10;;;;;;;6.77;100.00;100913.81;4957611;28;20042;-80
2022/12/26 10:56:24;;;;;;;10.95;2.40;;;;;;;6.76;100.00;100918.13;4971126;28;20054;-79
2022/12/26 10:59:02;;;;;;;12.93;2.53;;;;;;;6.74;100.00;100934.69;4991103;28;20055;-81
2022/12/26 11:01:36;;;;;;;12.23;2.97;;;;;;;6.73;100.00;100933.81;4976600;28;20053;-80
2022/12/26 11:04:25;;;;;;;8.30;2.50;;;;;;;6.71;100.00;100934.59;4996080;28;20050;-80
2022/12/26 11:07:16;;;;;;;11.57;2.17;;;;;;;6.66;100.00;100941.50;4987997;28;20074;-80
2022/12/26 11:09:54;;;;;;;9.98;2.22;;;;;;;6.62;100.00;100965.00;4977160;28;20038;-80
2022/12/26 11:12:29;;;;;;;10.82;2.42;;;;;;;6.60;100.00;100968.44;4972879;28;20049;-80
2022/12/26 11:15:02;;;;;;;14.27;2.53;;;;;;;6.56;100.00;100972.72;4993544;28;20046;-80
2022/12/26 11:17:35;;;;;;;5.10;1.50;;;;;;;6.49;100.00;100996.13;4975071;28;20546;-79
2022/12/26 11:20:14;;;;;;;10.60;2.05;;;;;;;6.44;100.00;101006.47;4989428;28;20053;-80
2022/12/26 11:22:43;;;;;;;14.20;2.35;;;;;;;6.40;100.00;101007.25;4961701;28;20055;-80
2022/12/26 11:25:16;;;;;;;10.00;2.08;;;;;;;6.37;100.00;101002.84;4981559;28;20038;-80
2022/12/26 11:27:51;;;;;;;9.40;1.90;;;;;;;6.28;100.00;101009.63;4985434;28;20463;-82
2022/12/26 11:30:21;;;;;;;12.18;1.73;;;;;;;6.24;100.00;101006.91;4974827;28;20054;-79
2022/12/26 11:33:11;;;;;;;3.10;1.40;;;;;;;6.24;100.00;101027.84;4981797;28;20070;-80
2022/12/26 11:36:16;;;;;;;10.02;1.67;;;;;;;6.29;100.00;101029.69;4991676;28;20062;-82
2022/12/26 11:38:47;;;;;;;7.70;2.22;;;;;;;6.41;100.00;101036.09;4955412;28;20085;-82
2022/12/26 11:41:37;;;;;;;12.98;1.75;;;;;;;6.50;100.00;101035.41;4979843;28;20049;-80
2022/12/26 11:44:08;;;;;;;12.68;3.13;;;;;;;6.58;100.00;101041.72;4972852;28;20050;-81
2022/12/26 11:46:42;;;;;;;9.70;1.90;;;;;;;6.63;100.00;101047.03;4987968;28;20042;-82
2022/12/26 11:49:16;;;;;;;8.27;1.55;;;;;;;6.60;100.00;101060.97;4954174;28;20039;-80
2022/12/26 11:51:46;;;;;;;7.35;1.55;;;;;;;6.59;100.00;101055.69;4988988;28;20035;-81
2022/12/26 11:54:29;;;;;;;7.33;1.90;;;;;;;6.53;100.00;101074.75;4965537;28;20048;-83
2022/12/26 11:57:14;;;;;;;18.23;2.22;;;;;;;6.44;100.00;101071.94;4996664;28;20470;-82
2022/12/26 11:59:44;;;;;;;7.57;1.58;;;;;;;6.41;100.00;101082.34;4990960;28;20045;-82
2022/12/26 12:02:25;;;;;;;11.13;1.98;;;;;;;6.44;100.00;101095.47;4974645;28;20057;-82
2022/12/26 12:04:56;;;;;;;7.97;2.00;;;;;;;6.40;100.00;101081.44;4980357;28;20050;-82
2022/12/26 12:07:26;;;;;;;5.63;1.63;;;;;;;6.37;100.00;101090.94;4988889;28;20051;-83
2022/12/26 12:10:22;;;;;;;9.38;2.33;;;;;;;6.29;100.00;101082.03;4960648;28;20049;-81
2022/12/26 12:12:57;;;;;;;9.88;1.52;;;;;;;6.27;100.00;101094.19;4969802;28;20046;-82
2022/12/26 12:15:35;;;;;;;10.18;1.98;;;;;;;6.25;100.00;101097.66;4967139;28;20053;-83
2022/12/26 12:18:11;;;;;;;9.20;1.80;;;;;;;6.26;100.00;101101.16;5005832;28;20061;-82
2022/12/26 12:20:57;;;;;;;9.85;2.65;;;;;;;6.27;100.00;101109.91;4967599;28;20042;-79
2022/12/26 12:23:27;;;;;;;9.48;1.52;;;;;;;6.26;100.00;101111.63;4972672;28;20073;-81
2022/12/26 12:26:06;;;;;;;5.40;1.88;;;;;;;6.27;100.00;101110.78;4943139;28;20392;-80
2022/12/26 12:28:42;;;;;;;9.32;1.95;;;;;;;6.28;100.00;101116.91;4950863;28;20051;-80
2022/12/26 12:31:47;;;;;;;16.58;3.42;;;;;;;6.28;100.00;101123.03;4989378;28;20046;-80
2022/12/26 12:34:33;;;;;;;13.27;2.13;;;;;;;6.31;100.00;101123.09;4985057;28;20050;-80
2022/12/26 12:37:04;;;;;;;13.73;2.55;;;;;;;6.29;100.00;101127.41;4977169;28;20047;-81
2022/12/26 12:39:44;;;;;;;7.32;2.13;;;;;;;6.27;100.00;101136.94;4969784;28;20057;-81
2022/12/26 12:42:49;;;;;;;14.20;2.50;;;;;;;6.27;100.00;101149.16;4945401;28;20057;-81
2022/12/26 12:45:33;;;;;;;17.20;2.90;;;;;;;6.30;100.00;101144.00;4984783;28;20046;-81
2022/12/26 12:48:43;;;;;;;9.23;1.70;;;;;;;6.28;100.00;101153.56;4989418;28;20050;-81
2022/12/26 12:51:19;;;;;;;9.90;1.98;;;;;;;6.27;100.00;101155.28;4938923;28;20055;-81
2022/12/26 12:54:06;;;;;;;14.93;2.55;;;;;;;6.29;100.00;101161.44;4969605;28;20586;-80
2022/12/26 12:57:04;;;;;;;12.57;2.45;;;;;;;6.26;100.00;101156.13;4946788;28;20058;-80
2022/12/26 12:59:37;;;;;;;12.43;2.40;;;;;;;6.23;100.00;101167.38;4981393;28;20054;-83
2022/12/26 13:02:31;;;;;;;15.75;2.85;;;;;;;6.22;100.00;101160.41;5002132;28;20134;-80
2022/12/26 13:05:15;;;;;;;10.05;2.80;;;;;;;6.21;100.00;101178.66;4989426;28;20057;-80
2022/12/26 13:07:49;;;;;;;18.20;3.60;;;;;;;6.20;100.00;101166.41;4971318;28;20870;-81
2022/12/26 13:10:27;;;;;;;17.10;3.17;;;;;;;6.13;100.00;101181.09;4984873;28;20106;-83
2022/12/26 13:12:57;;;;;;;20.40;2.92;;;;;;;6.12;100.00;101192.38;4938588;28;20065;-82
2022/12/26 13:15:33;;;;;;;20.27;2.97;;;;;;;6.11;100.00;101190.63;4960553;28;20411;-82
2022/12/26 13:18:21;;;;;;;9.20;2.67;;;;;;;6.08;100.00;101198.38;4972991;28;20415;-80
2022/12/26 13:21:07;;;;;;;16.05;2.58;;;;;;;6.08;100.00;101211.47;4987905;28;20047;-82
2022/12/26 13:26:48;;;;;;;18.52;3.28;;;;;;;5.97;100.00;101216.44;4986801;28;20796;-82
2022/12/26 13:29:35;;;;;;;16.17;2.38;;;;;;;5.96;100.00;101224.22;4962432;28;20050;-81
2022/12/26 13:32:12;;;;;;;14.73;2.67;;;;;;;5.93;100.00;101229.31;4986283;28;20061;-80
2022/12/26 13:34:45;;;;;;;16.33;3.20;;;;;;;5.92;100.00;101227.56;4982247;28;20054;-82
2022/12/26 13:37:31;;;;;;;16.58;3.72;;;;;;;5.91;100.00;101237.13;4991115;28;20500;-82
2022/12/26 13:40:02;;;;;;;13.05;2.45;;;;;;;5.94;100.00;101238.97;4980256;28;20055;-80
2022/12/26 13:45:36;;;;;;;13.93;3.65;;;;;;;5.92;100.00;101238.03;4956698;28;20062;-81
2022/12/26 13:48:16;;;;;;;12.20;2.80;;;;;;;5.92;100.00;101241.53;4969609;28;20059;-81
2022/12/26 13:50:50;;;;;;;12.07;2.65;;;;;;;5.92;100.00;101240.66;4985225;28;20058;-81
2022/12/26 13:53:25;;;;;;;18.60;2.78;;;;;;;5.88;100.00;101238.75;4989425;28;20426;-81
2022/12/26 13:56:03;;;;;;;9.93;3.13;;;;;;;5.90;100.00;101245.84;4992010;28;20042;-81
2022/12/26 13:58:31;;;;;;;16.83;2.47;;;;;;;5.91;100.00;101249.31;4991346;28;20046;-81
2022/12/26 14:01:25;;;;;;;10.05;2.03;;;;;;;5.90;100.00;101260.63;4938299;28;20053;-81
2022/12/26 14:04:15;;;;;;;16.73;2.95;;;;;;;5.92;100.00;101258.97;4990021;28;20050;-81